Vining, Minnesota
Current Conditions -  °F | °C
As of 11:35 AM on Tuesday 21 Oct 2014 (Local Time) from KADC Reporting Station
Clear Clear  
Wind Chill: 50°   Ceiling: Unl
Heat Index: 50°   Visibility: 10mi
Dew Point: 39°   Wind: 15mph
Humidity: 66%   Direction: 140°SE
Pressure: 30.1"   Gusts: 21mph
Location:  46.26°N, 95.54°W
Report Text: KADC 211635Z AUTO 14013G18KT 10SM CLR 10/04 A3010 RMK AO2
Loading
Personal Weather Stations






























Interactive Weather Map
Tropical Storm Tracking
New forecast layout! Learn more

10-Day Weather Forecast

Advertisements
Track Severe Weather on mobile